Frontier, Wyoming
Current Conditions -  °F | °C
As of 12:55 AM on Friday 31 Oct 2014 (Local Time) from KEMM Reporting Station
Clear Clear  
Wind Chill: 37°   Ceiling: Unl
Heat Index: 43°   Visibility: 10mi
Dew Point: 27°   Wind: 12mph
Humidity: 53%   Direction: 360°N
Pressure: 30.25"   Gusts: NA
Location:  41.81°N, 110.54°W
Report Text: KEMM 310655Z AUTO 36010KT 10SM CLR 06/M03 A3025 RMK AO2
Loading
Personal Weather Stations






























Interactive Weather Map
Tropical Storm Tracking
New forecast layout! Learn more

10-Day Weather Forecast

Advertisements
Track Severe Weather on mobile